sensor_id;sensor_type;location;lat;lon;timestamp;P1;durP1;ratioP1;P2;durP2;ratioP2
11699;SDS011;5906;51.660;6.674;2023-04-03T00:00:39;11.03;;;7.70;;
11699;SDS011;5906;51.660;6.674;2023-04-03T00:03:06;8.77;;;7.97;;
11699;SDS011;5906;51.660;6.674;2023-04-03T00:05:34;10.40;;;7.20;;
11699;SDS011;5906;51.660;6.674;2023-04-03T00:08:01;8.97;;;6.43;;
11699;SDS011;5906;51.660;6.674;2023-04-03T00:10:28;11.70;;;8.57;;
11699;SDS011;5906;51.660;6.674;2023-04-03T00:12:55;7.47;;;6.70;;
11699;SDS011;5906;51.660;6.674;2023-04-03T00:15:22;15.33;;;6.77;;
11699;SDS011;5906;51.660;6.674;2023-04-03T00:17:50;8.40;;;7.60;;
11699;SDS011;5906;51.660;6.674;2023-04-03T00:20:17;10.43;;;8.13;;
11699;SDS011;5906;51.660;6.674;2023-04-03T00:22:44;8.83;;;7.30;;
11699;SDS011;5906;51.660;6.674;2023-04-03T00:25:11;8.60;;;6.73;;
11699;SDS011;5906;51.660;6.674;2023-04-03T00:27:38;8.20;;;7.17;;
11699;SDS011;5906;51.660;6.674;2023-04-03T00:30:07;10.00;;;7.93;;
11699;SDS011;5906;51.660;6.674;2023-04-03T00:32:38;8.20;;;7.00;;
11699;SDS011;5906;51.660;6.674;2023-04-03T00:35:05;7.70;;;6.90;;
11699;SDS011;5906;51.660;6.674;2023-04-03T00:37:33;9.07;;;8.20;;
11699;SDS011;5906;51.660;6.674;2023-04-03T00:39:59;7.63;;;6.93;;
11699;SDS011;5906;51.660;6.674;2023-04-03T00:42:27;10.27;;;7.50;;
11699;SDS011;5906;51.660;6.674;2023-04-03T00:47:24;6.47;;;5.50;;
11699;SDS011;5906;51.660;6.674;2023-04-03T00:49:51;7.17;;;6.47;;
11699;SDS011;5906;51.660;6.674;2023-04-03T00:52:21;7.33;;;6.63;;
11699;SDS011;5906;51.660;6.674;2023-04-03T00:54:52;8.00;;;7.03;;
11699;SDS011;5906;51.660;6.674;2023-04-03T00:57:24;8.60;;;7.07;;
11699;SDS011;5906;51.660;6.674;2023-04-03T00:59:52;8.37;;;6.73;;
11699;SDS011;5906;51.660;6.674;2023-04-03T01:02:23;8.60;;;7.80;;
11699;SDS011;5906;51.660;6.674;2023-04-03T01:04:50;7.40;;;5.83;;
11699;SDS011;5906;51.660;6.674;2023-04-03T01:09:48;7.27;;;6.57;;
11699;SDS011;5906;51.660;6.674;2023-04-03T01:12:22;9.00;;;6.47;;
11699;SDS011;5906;51.660;6.674;2023-04-03T01:14:59;8.73;;;6.10;;
11699;SDS011;5906;51.660;6.674;2023-04-03T01:25:37;6.00;;;5.50;;
11699;SDS011;5906;51.660;6.674;2023-04-03T01:28:06;5.83;;;4.87;;
11699;SDS011;5906;51.660;6.674;2023-04-03T01:30:36;7.97;;;6.20;;
11699;SDS011;5906;51.660;6.674;2023-04-03T01:33:13;5.67;;;4.80;;
11699;SDS011;5906;51.660;6.674;2023-04-03T01:35:40;6.90;;;6.30;;
11699;SDS011;5906;51.660;6.674;2023-04-03T01:38:07;6.00;;;5.23;;
11699;SDS011;5906;51.660;6.674;2023-04-03T01:40:34;5.53;;;5.03;;
11699;SDS011;5906;51.660;6.674;2023-04-03T01:43:02;6.37;;;5.77;;
11699;SDS011;5906;51.660;6.674;2023-04-03T01:45:29;7.53;;;5.23;;
11699;SDS011;5906;51.660;6.674;2023-04-03T01:47:57;6.50;;;5.80;;
11699;SDS011;5906;51.660;6.674;2023-04-03T01:50:24;5.90;;;4.50;;
11699;SDS011;5906;51.660;6.674;2023-04-03T01:52:51;5.83;;;5.13;;
11699;SDS011;5906;51.660;6.674;2023-04-03T01:55:18;7.07;;;6.27;;
11699;SDS011;5906;51.660;6.674;2023-04-03T01:57:46;6.63;;;4.83;;
11699;SDS011;5906;51.660;6.674;2023-04-03T02:00:13;6.00;;;5.40;;
11699;SDS011;5906;51.660;6.674;2023-04-03T02:02:40;8.03;;;5.50;;
11699;SDS011;5906;51.660;6.674;2023-04-03T02:05:08;4.90;;;4.53;;
11699;SDS011;5906;51.660;6.674;2023-04-03T02:07:35;5.87;;;5.27;;
11699;SDS011;5906;51.660;6.674;2023-04-03T02:10:02;7.17;;;6.07;;
11699;SDS011;5906;51.660;6.674;2023-04-03T02:12:29;7.03;;;4.83;;
11699;SDS011;5906;51.660;6.674;2023-04-03T02:14:56;7.20;;;5.47;;
11699;SDS011;5906;51.660;6.674;2023-04-03T02:17:23;5.60;;;5.17;;
11699;SDS011;5906;51.660;6.674;2023-04-03T02:19:50;6.53;;;4.60;;
11699;SDS011;5906;51.660;6.674;2023-04-03T02:22:17;14.40;;;5.50;;
11699;SDS011;5906;51.660;6.674;2023-04-03T02:24:45;6.67;;;3.77;;
11699;SDS011;5906;51.660;6.674;2023-04-03T02:27:12;5.30;;;4.47;;
11699;SDS011;5906;51.660;6.674;2023-04-03T02:29:39;4.93;;;4.50;;
11699;SDS011;5906;51.660;6.674;2023-04-03T02:32:06;5.37;;;4.30;;
11699;SDS011;5906;51.660;6.674;2023-04-03T02:34:33;4.37;;;3.77;;
11699;SDS011;5906;51.660;6.674;2023-04-03T02:37:00;4.00;;;3.67;;
11699;SDS011;5906;51.660;6.674;2023-04-03T02:39:28;4.87;;;4.30;;
11699;SDS011;5906;51.660;6.674;2023-04-03T02:41:55;6.63;;;4.87;;
11699;SDS011;5906;51.660;6.674;2023-04-03T02:44:22;4.77;;;4.30;;
11699;SDS011;5906;51.660;6.674;2023-04-03T02:46:50;5.03;;;4.53;;
11699;SDS011;5906;51.660;6.674;2023-04-03T02:49:17;5.23;;;4.73;;
11699;SDS011;5906;51.660;6.674;2023-04-03T02:51:43;6.83;;;4.30;;
11699;SDS011;5906;51.660;6.674;2023-04-03T02:54:10;11.17;;;4.40;;
11699;SDS011;5906;51.660;6.674;2023-04-03T02:56:37;13.63;;;5.00;;
11699;SDS011;5906;51.660;6.674;2023-04-03T02:59:04;6.10;;;4.97;;
11699;SDS011;5906;51.660;6.674;2023-04-03T03:01:32;9.33;;;4.70;;
11699;SDS011;5906;51.660;6.674;2023-04-03T03:03:59;8.70;;;3.83;;
11699;SDS011;5906;51.660;6.674;2023-04-03T03:06:26;4.37;;;3.80;;
11699;SDS011;5906;51.660;6.674;2023-04-03T03:08:53;5.53;;;5.03;;
11699;SDS011;5906;51.660;6.674;2023-04-03T03:11:20;4.90;;;4.50;;
11699;SDS011;5906;51.660;6.674;2023-04-03T03:13:47;11.60;;;4.87;;
11699;SDS011;5906;51.660;6.674;2023-04-03T03:16:15;4.53;;;4.10;;
11699;SDS011;5906;51.660;6.674;2023-04-03T03:18:42;5.20;;;4.80;;
11699;SDS011;5906;51.660;6.674;2023-04-03T03:21:09;5.47;;;4.97;;
11699;SDS011;5906;51.660;6.674;2023-04-03T03:23:37;5.13;;;4.63;;
11699;SDS011;5906;51.660;6.674;2023-04-03T03:26:05;7.23;;;5.30;;
11699;SDS011;5906;51.660;6.674;2023-04-03T03:28:33;4.80;;;4.40;;
11699;SDS011;5906;51.660;6.674;2023-04-03T03:31:02;4.53;;;4.13;;
11699;SDS011;5906;51.660;6.674;2023-04-03T03:33:29;4.70;;;4.30;;
11699;SDS011;5906;51.660;6.674;2023-04-03T03:35:56;6.50;;;3.90;;
11699;SDS011;5906;51.660;6.674;2023-04-03T03:38:24;3.63;;;3.33;;
11699;SDS011;5906;51.660;6.674;2023-04-03T03:40:51;4.33;;;3.97;;
11699;SDS011;5906;51.660;6.674;2023-04-03T03:43:18;4.93;;;4.43;;
11699;SDS011;5906;51.660;6.674;2023-04-03T03:45:49;5.07;;;4.47;;
11699;SDS011;5906;51.660;6.674;2023-04-03T03:48:20;7.30;;;5.10;;
11699;SDS011;5906;51.660;6.674;2023-04-03T03:50:48;5.10;;;4.10;;
11699;SDS011;5906;51.660;6.674;2023-04-03T03:53:16;5.97;;;3.87;;
11699;SDS011;5906;51.660;6.674;2023-04-03T03:55:44;4.80;;;3.90;;
11699;SDS011;5906;51.660;6.674;2023-04-03T03:58:11;7.47;;;4.60;;
11699;SDS011;5906;51.660;6.674;2023-04-03T04:00:38;7.93;;;3.60;;
11699;SDS011;5906;51.660;6.674;2023-04-03T04:03:05;5.73;;;3.77;;
11699;SDS011;5906;51.660;6.674;2023-04-03T04:05:32;9.17;;;4.00;;
11699;SDS011;5906;51.660;6.674;2023-04-03T04:07:59;5.97;;;4.40;;
11699;SDS011;5906;51.660;6.674;2023-04-03T04:10:26;5.63;;;4.13;;
11699;SDS011;5906;51.660;6.674;2023-04-03T04:12:53;4.40;;;4.00;;
11699;SDS011;5906;51.660;6.674;2023-04-03T04:15:22;4.43;;;4.03;;
11699;SDS011;5906;51.660;6.674;2023-04-03T04:17:50;10.57;;;4.23;;
11699;SDS011;5906;51.660;6.674;2023-04-03T04:20:17;7.53;;;5.00;;
11699;SDS011;5906;51.660;6.674;2023-04-03T04:22:44;6.13;;;4.20;;
11699;SDS011;5906;51.660;6.674;2023-04-03T04:25:11;5.93;;;5.43;;
11699;SDS011;5906;51.660;6.674;2023-04-03T04:27:38;6.27;;;4.60;;
11699;SDS011;5906;51.660;6.674;2023-04-03T04:30:05;5.43;;;4.97;;
11699;SDS011;5906;51.660;6.674;2023-04-03T04:32:33;4.53;;;4.20;;
11699;SDS011;5906;51.660;6.674;2023-04-03T04:35:00;4.60;;;4.20;;
11699;SDS011;5906;51.660;6.674;2023-04-03T04:37:27;5.83;;;4.90;;
11699;SDS011;5906;51.660;6.674;2023-04-03T04:39:54;7.67;;;4.60;;
11699;SDS011;5906;51.660;6.674;2023-04-03T04:42:21;5.73;;;5.07;;
11699;SDS011;5906;51.660;6.674;2023-04-03T04:44:48;5.57;;;3.90;;
11699;SDS011;5906;51.660;6.674;2023-04-03T04:47:15;4.83;;;4.43;;
11699;SDS011;5906;51.660;6.674;2023-04-03T04:49:42;11.50;;;4.60;;
11699;SDS011;5906;51.660;6.674;2023-04-03T04:52:09;7.77;;;5.50;;
11699;SDS011;5906;51.660;6.674;2023-04-03T04:54:36;4.90;;;4.50;;
11699;SDS011;5906;51.660;6.674;2023-04-03T04:57:03;5.30;;;4.90;;
11699;SDS011;5906;51.660;6.674;2023-04-03T04:59:30;7.70;;;4.30;;
11699;SDS011;5906;51.660;6.674;2023-04-03T05:01:57;5.47;;;4.97;;
11699;SDS011;5906;51.660;6.674;2023-04-03T05:04:25;14.70;;;4.60;;
11699;SDS011;5906;51.660;6.674;2023-04-03T05:06:52;6.53;;;5.57;;
11699;SDS011;5906;51.660;6.674;2023-04-03T05:09:19;8.20;;;5.37;;
11699;SDS011;5906;51.660;6.674;2023-04-03T05:11:46;5.50;;;5.10;;
11699;SDS011;5906;51.660;6.674;2023-04-03T05:14:13;7.83;;;4.40;;
11699;SDS011;5906;51.660;6.674;2023-04-03T05:16:40;5.57;;;4.00;;
11699;SDS011;5906;51.660;6.674;2023-04-03T05:19:07;7.30;;;4.47;;
11699;SDS011;5906;51.660;6.674;2023-04-03T05:21:34;5.50;;;5.10;;
11699;SDS011;5906;51.660;6.674;2023-04-03T05:24:01;9.90;;;4.73;;
11699;SDS011;5906;51.660;6.674;2023-04-03T05:26:32;7.70;;;5.10;;
11699;SDS011;5906;51.660;6.674;2023-04-03T05:28:59;8.30;;;4.47;;
11699;SDS011;5906;51.660;6.674;2023-04-03T05:31:26;5.37;;;4.87;;
11699;SDS011;5906;51.660;6.674;2023-04-03T05:33:56;4.40;;;4.00;;
11699;SDS011;5906;51.660;6.674;2023-04-03T05:36:23;9.23;;;4.57;;
11699;SDS011;5906;51.660;6.674;2023-04-03T05:38:52;8.00;;;4.70;;
11699;SDS011;5906;51.660;6.674;2023-04-03T05:41:19;5.40;;;4.17;;
11699;SDS011;5906;51.660;6.674;2023-04-03T05:43:49;6.93;;;4.67;;
11699;SDS011;5906;51.660;6.674;2023-04-03T05:46:17;6.77;;;4.87;;
11699;SDS011;5906;51.660;6.674;2023-04-03T05:48:45;6.33;;;5.60;;
11699;SDS011;5906;51.660;6.674;2023-04-03T05:51:17;4.83;;;4.23;;
11699;SDS011;5906;51.660;6.674;2023-04-03T05:53:46;9.00;;;4.50;;
11699;SDS011;5906;51.660;6.674;2023-04-03T05:56:14;4.63;;;3.97;;
11699;SDS011;5906;51.660;6.674;2023-04-03T05:58:41;7.53;;;4.53;;
11699;SDS011;5906;51.660;6.674;2023-04-03T06:01:08;18.00;;;4.50;;
11699;SDS011;5906;51.660;6.674;2023-04-03T06:03:35;10.37;;;4.00;;
11699;SDS011;5906;51.660;6.674;2023-04-03T06:06:05;7.30;;;5.33;;
11699;SDS011;5906;51.660;6.674;2023-04-03T06:08:34;11.47;;;5.67;;
11699;SDS011;5906;51.660;6.674;2023-04-03T06:11:01;12.80;;;9.27;;
11699;SDS011;5906;51.660;6.674;2023-04-03T06:13:28;7.20;;;4.30;;
11699;SDS011;5906;51.660;6.674;2023-04-03T06:15:55;8.97;;;6.63;;
11699;SDS011;5906;51.660;6.674;2023-04-03T06:18:23;7.47;;;4.80;;
11699;SDS011;5906;51.660;6.674;2023-04-03T06:20:50;5.13;;;4.47;;
11699;SDS011;5906;51.660;6.674;2023-04-03T06:23:18;6.13;;;4.80;;
11699;SDS011;5906;51.660;6.674;2023-04-03T06:25:45;8.50;;;5.60;;
11699;SDS011;5906;51.660;6.674;2023-04-03T06:28:12;8.27;;;4.97;;
11699;SDS011;5906;51.660;6.674;2023-04-03T06:30:39;6.50;;;5.23;;
11699;SDS011;5906;51.660;6.674;2023-04-03T06:33:06;5.20;;;4.60;;
11699;SDS011;5906;51.660;6.674;2023-04-03T06:35:33;6.00;;;4.80;;
11699;SDS011;5906;51.660;6.674;2023-04-03T06:38:01;6.80;;;4.67;;
11699;SDS011;5906;51.660;6.674;2023-04-03T06:40:30;5.80;;;4.83;;
11699;SDS011;5906;51.660;6.674;2023-04-03T06:42:57;4.80;;;4.30;;
11699;SDS011;5906;51.660;6.674;2023-04-03T06:45:24;13.60;;;6.60;;
11699;SDS011;5906;51.660;6.674;2023-04-03T06:47:51;13.37;;;7.33;;
11699;SDS011;5906;51.660;6.674;2023-04-03T06:50:19;12.20;;;6.83;;
11699;SDS011;5906;51.660;6.674;2023-04-03T06:52:46;7.70;;;6.13;;
11699;SDS011;5906;51.660;6.674;2023-04-03T06:55:13;8.10;;;5.27;;
11699;SDS011;5906;51.660;6.674;2023-04-03T06:57:40;11.97;;;8.07;;
11699;SDS011;5906;51.660;6.674;2023-04-03T07:00:07;5.87;;;4.93;;
11699;SDS011;5906;51.660;6.674;2023-04-03T07:02:36;6.70;;;5.43;;
11699;SDS011;5906;51.660;6.674;2023-04-03T07:05:03;10.63;;;5.40;;
11699;SDS011;5906;51.660;6.674;2023-04-03T07:07:30;7.60;;;5.57;;
11699;SDS011;5906;51.660;6.674;2023-04-03T07:09:57;5.23;;;4.73;;
11699;SDS011;5906;51.660;6.674;2023-04-03T07:12:24;9.40;;;4.37;;
11699;SDS011;5906;51.660;6.674;2023-04-03T07:14:51;8.30;;;4.43;;
11699;SDS011;5906;51.660;6.674;2023-04-03T07:17:19;4.27;;;3.47;;
11699;SDS011;5906;51.660;6.674;2023-04-03T07:19:46;4.97;;;4.57;;
11699;SDS011;5906;51.660;6.674;2023-04-03T07:22:13;5.27;;;4.20;;
11699;SDS011;5906;51.660;6.674;2023-04-03T07:24:40;5.70;;;5.17;;
11699;SDS011;5906;51.660;6.674;2023-04-03T07:27:07;6.20;;;4.50;;
11699;SDS011;5906;51.660;6.674;2023-04-03T07:29:34;4.30;;;4.00;;
11699;SDS011;5906;51.660;6.674;2023-04-03T07:32:02;5.10;;;4.60;;
11699;SDS011;5906;51.660;6.674;2023-04-03T07:34:29;8.83;;;5.07;;
11699;SDS011;5906;51.660;6.674;2023-04-03T07:36:57;7.20;;;4.40;;
11699;SDS011;5906;51.660;6.674;2023-04-03T07:39:24;4.80;;;4.17;;
11699;SDS011;5906;51.660;6.674;2023-04-03T07:41:51;9.53;;;4.10;;
11699;SDS011;5906;51.660;6.674;2023-04-03T07:44:18;4.90;;;4.10;;
11699;SDS011;5906;51.660;6.674;2023-04-03T07:46:45;5.37;;;3.83;;
11699;SDS011;5906;51.660;6.674;2023-04-03T07:49:13;7.13;;;6.50;;
11699;SDS011;5906;51.660;6.674;2023-04-03T07:51:40;6.80;;;3.70;;
11699;SDS011;5906;51.660;6.674;2023-04-03T07:54:07;6.00;;;4.20;;
11699;SDS011;5906;51.660;6.674;2023-04-03T07:56:33;8.47;;;4.23;;
11699;SDS011;5906;51.660;6.674;2023-04-03T07:59:01;5.47;;;4.30;;
11699;SDS011;5906;51.660;6.674;2023-04-03T08:01:28;4.10;;;3.70;;
11699;SDS011;5906;51.660;6.674;2023-04-03T08:03:58;4.17;;;3.23;;
11699;SDS011;5906;51.660;6.674;2023-04-03T08:06:25;9.30;;;5.10;;
11699;SDS011;5906;51.660;6.674;2023-04-03T08:09:10;5.27;;;3.93;;
11699;SDS011;5906;51.660;6.674;2023-04-03T08:11:38;4.60;;;4.00;;
11699;SDS011;5906;51.660;6.674;2023-04-03T08:14:06;11.10;;;4.53;;
11699;SDS011;5906;51.660;6.674;2023-04-03T08:16:33;6.83;;;3.93;;
11699;SDS011;5906;51.660;6.674;2023-04-03T08:19:00;5.33;;;3.43;;
11699;SDS011;5906;51.660;6.674;2023-04-03T08:21:29;6.87;;;4.10;;
11699;SDS011;5906;51.660;6.674;2023-04-03T08:23:56;6.60;;;5.20;;
11699;SDS011;5906;51.660;6.674;2023-04-03T08:26:23;9.10;;;4.43;;
11699;SDS011;5906;51.660;6.674;2023-04-03T08:28:50;7.03;;;5.17;;
11699;SDS011;5906;51.660;6.674;2023-04-03T08:31:18;6.00;;;5.07;;
11699;SDS011;5906;51.660;6.674;2023-04-03T08:33:46;3.43;;;3.13;;
11699;SDS011;5906;51.660;6.674;2023-04-03T08:36:25;3.23;;;2.93;;
11699;SDS011;5906;51.660;6.674;2023-04-03T08:38:54;5.47;;;3.30;;
11699;SDS011;5906;51.660;6.674;2023-04-03T08:47:07;3.27;;;3.07;;
11699;SDS011;5906;51.660;6.674;2023-04-03T08:49:45;4.00;;;3.60;;
11699;SDS011;5906;51.660;6.674;2023-04-03T08:52:19;5.23;;;4.63;;
11699;SDS011;5906;51.660;6.674;2023-04-03T08:57:48;8.40;;;5.27;;
11699;SDS011;5906;51.660;6.674;2023-04-03T09:00:24;7.13;;;3.80;;
11699;SDS011;5906;51.660;6.674;2023-04-03T09:02:53;4.20;;;3.80;;
11699;SDS011;5906;51.660;6.674;2023-04-03T09:08:12;3.97;;;2.90;;
11699;SDS011;5906;51.660;6.674;2023-04-03T09:10:47;3.27;;;2.97;;
11699;SDS011;5906;51.660;6.674;2023-04-03T09:15:46;3.73;;;3.40;;
11699;SDS011;5906;51.660;6.674;2023-04-03T09:18:15;3.87;;;3.57;;
11699;SDS011;5906;51.660;6.674;2023-04-03T09:23:30;3.50;;;3.20;;
11699;SDS011;5906;51.660;6.674;2023-04-03T09:26:03;4.80;;;2.80;;
11699;SDS011;5906;51.660;6.674;2023-04-03T09:28:37;3.60;;;3.23;;
11699;SDS011;5906;51.660;6.674;2023-04-03T09:31:20;2.87;;;2.67;;
11699;SDS011;5906;51.660;6.674;2023-04-03T09:33:48;3.30;;;2.67;;
11699;SDS011;5906;51.660;6.674;2023-04-03T09:39:04;2.77;;;2.57;;
11699;SDS011;5906;51.660;6.674;2023-04-03T09:41:35;4.07;;;3.03;;
11699;SDS011;5906;51.660;6.674;2023-04-03T09:44:02;3.80;;;3.37;;
11699;SDS011;5906;51.660;6.674;2023-04-03T09:46:30;9.03;;;4.10;;
11699;SDS011;5906;51.660;6.674;2023-04-03T09:49:03;3.07;;;2.73;;
11699;SDS011;5906;51.660;6.674;2023-04-03T09:51:35;2.60;;;2.40;;
11699;SDS011;5906;51.660;6.674;2023-04-03T09:57:07;2.50;;;2.40;;
11699;SDS011;5906;51.660;6.674;2023-04-03T09:59:58;3.03;;;2.73;;
11699;SDS011;5906;51.660;6.674;2023-04-03T10:04:59;2.97;;;2.30;;
11699;SDS011;5906;51.660;6.674;2023-04-03T10:07:36;2.70;;;2.50;;
11699;SDS011;5906;51.660;6.674;2023-04-03T10:13:00;4.60;;;2.77;;
11699;SDS011;5906;51.660;6.674;2023-04-03T10:15:44;3.87;;;2.40;;
11699;SDS011;5906;51.660;6.674;2023-04-03T10:21:10;3.23;;;2.73;;
11699;SDS011;5906;51.660;6.674;2023-04-03T10:24:08;3.73;;;2.80;;
11699;SDS011;5906;51.660;6.674;2023-04-03T10:34:43;3.10;;;2.80;;
11699;SDS011;5906;51.660;6.674;2023-04-03T10:37:24;6.00;;;3.03;;
11699;SDS011;5906;51.660;6.674;2023-04-03T10:40:03;4.77;;;3.23;;
11699;SDS011;5906;51.660;6.674;2023-04-03T10:42:43;3.30;;;3.10;;
11699;SDS011;5906;51.660;6.674;2023-04-03T10:55:46;3.30;;;2.43;;
11699;SDS011;5906;51.660;6.674;2023-04-03T10:58:30;3.03;;;2.73;;
11699;SDS011;5906;51.660;6.674;2023-04-03T11:01:01;4.10;;;2.30;;
11699;SDS011;5906;51.660;6.674;2023-04-03T11:03:36;3.40;;;2.40;;
11699;SDS011;5906;51.660;6.674;2023-04-03T11:06:08;3.10;;;2.80;;
11699;SDS011;5906;51.660;6.674;2023-04-03T11:11:19;4.40;;;3.10;;
11699;SDS011;5906;51.660;6.674;2023-04-03T11:13:52;3.23;;;2.93;;
11699;SDS011;5906;51.660;6.674;2023-04-03T11:16:46;4.80;;;2.40;;
11699;SDS011;5906;51.660;6.674;2023-04-03T11:21:57;4.93;;;2.60;;
11699;SDS011;5906;51.660;6.674;2023-04-03T11:24:32;4.90;;;2.47;;
11699;SDS011;5906;51.660;6.674;2023-04-03T11:27:02;4.87;;;2.97;;
11699;SDS011;5906;51.660;6.674;2023-04-03T11:29:34;3.10;;;2.80;;
11699;SDS011;5906;51.660;6.674;2023-04-03T11:35:04;10.53;;;2.93;;
11699;SDS011;5906;51.660;6.674;2023-04-03T11:37:34;4.03;;;2.63;;
11699;SDS011;5906;51.660;6.674;2023-04-03T11:42:46;2.50;;;2.20;;
11699;SDS011;5906;51.660;6.674;2023-04-03T11:47:58;2.83;;;2.60;;
11699;SDS011;5906;51.660;6.674;2023-04-03T11:50:49;3.37;;;3.07;;
11699;SDS011;5906;51.660;6.674;2023-04-03T11:55:45;3.20;;;2.40;;
11699;SDS011;5906;51.660;6.674;2023-04-03T11:58:16;6.33;;;3.10;;
11699;SDS011;5906;51.660;6.674;2023-04-03T12:00:55;2.73;;;2.20;;
11699;SDS011;5906;51.660;6.674;2023-04-03T12:13:36;2.77;;;2.50;;
11699;SDS011;5906;51.660;6.674;2023-04-03T12:16:19;3.60;;;2.40;;
11699;SDS011;5906;51.660;6.674;2023-04-03T12:21:15;5.50;;;2.53;;
11699;SDS011;5906;51.660;6.674;2023-04-03T12:26:38;4.67;;;2.80;;
11699;SDS011;5906;51.660;6.674;2023-04-03T12:32:17;4.87;;;2.70;;
11699;SDS011;5906;51.660;6.674;2023-04-03T12:35:19;3.50;;;2.27;;
11699;SDS011;5906;51.660;6.674;2023-04-03T12:46:03;2.43;;;1.90;;
11699;SDS011;5906;51.660;6.674;2023-04-03T12:51:05;4.83;;;2.97;;
11699;SDS011;5906;51.660;6.674;2023-04-03T12:53:34;4.83;;;2.30;;
11699;SDS011;5906;51.660;6.674;2023-04-03T12:56:25;3.80;;;2.10;;
11699;SDS011;5906;51.660;6.674;2023-04-03T12:58:55;3.30;;;2.40;;
11699;SDS011;5906;51.660;6.674;2023-04-03T13:01:44;3.83;;;2.63;;
11699;SDS011;5906;51.660;6.674;2023-04-03T13:04:23;5.77;;;2.70;;
11699;SDS011;5906;51.660;6.674;2023-04-03T13:06:51;4.33;;;2.17;;
11699;SDS011;5906;51.660;6.674;2023-04-03T13:09:25;3.10;;;2.23;;
11699;SDS011;5906;51.660;6.674;2023-04-03T13:12:08;5.53;;;2.60;;
11699;SDS011;5906;51.660;6.674;2023-04-03T13:14:38;5.40;;;2.40;;
11699;SDS011;5906;51.660;6.674;2023-04-03T13:17:12;2.93;;;2.10;;
11699;SDS011;5906;51.660;6.674;2023-04-03T13:19:41;3.13;;;2.50;;
11699;SDS011;5906;51.660;6.674;2023-04-03T13:24:51;3.83;;;2.63;;
11699;SDS011;5906;51.660;6.674;2023-04-03T13:27:19;7.10;;;2.90;;
11699;SDS011;5906;51.660;6.674;2023-04-03T13:29:51;3.43;;;2.60;;
11699;SDS011;5906;51.660;6.674;2023-04-03T13:32:21;2.33;;;2.03;;
11699;SDS011;5906;51.660;6.674;2023-04-03T13:34:50;4.50;;;2.73;;
11699;SDS011;5906;51.660;6.674;2023-04-03T13:42:38;3.80;;;3.00;;
11699;SDS011;5906;51.660;6.674;2023-04-03T13:47:50;6.33;;;3.63;;
11699;SDS011;5906;51.660;6.674;2023-04-03T13:50:20;3.10;;;2.57;;
11699;SDS011;5906;51.660;6.674;2023-04-03T13:52:55;4.13;;;2.47;;
11699;SDS011;5906;51.660;6.674;2023-04-03T13:55:39;9.03;;;3.33;;
11699;SDS011;5906;51.660;6.674;2023-04-03T13:58:24;9.30;;;5.00;;
11699;SDS011;5906;51.660;6.674;2023-04-03T14:00:54;12.37;;;5.27;;
11699;SDS011;5906;51.660;6.674;2023-04-03T14:05:54;6.30;;;4.00;;
11699;SDS011;5906;51.660;6.674;2023-04-03T14:08:21;11.90;;;5.93;;
11699;SDS011;5906;51.660;6.674;2023-04-03T14:11:01;3.70;;;2.87;;
11699;SDS011;5906;51.660;6.674;2023-04-03T14:13:29;4.90;;;3.33;;
11699;SDS011;5906;51.660;6.674;2023-04-03T14:15:57;4.20;;;3.33;;
11699;SDS011;5906;51.660;6.674;2023-04-03T14:18:38;9.57;;;3.87;;
11699;SDS011;5906;51.660;6.674;2023-04-03T14:21:05;8.63;;;2.30;;
11699;SDS011;5906;51.660;6.674;2023-04-03T14:23:32;3.33;;;2.90;;
11699;SDS011;5906;51.660;6.674;2023-04-03T14:25:59;5.10;;;3.67;;
11699;SDS011;5906;51.660;6.674;2023-04-03T14:28:26;4.87;;;2.57;;
11699;SDS011;5906;51.660;6.674;2023-04-03T14:30:53;4.50;;;2.60;;
11699;SDS011;5906;51.660;6.674;2023-04-03T14:33:21;3.83;;;3.03;;
11699;SDS011;5906;51.660;6.674;2023-04-03T14:35:49;4.40;;;2.63;;
11699;SDS011;5906;51.660;6.674;2023-04-03T14:38:26;5.60;;;3.50;;
11699;SDS011;5906;51.660;6.674;2023-04-03T14:40:55;4.60;;;3.03;;
11699;SDS011;5906;51.660;6.674;2023-04-03T14:43:35;3.37;;;2.80;;
11699;SDS011;5906;51.660;6.674;2023-04-03T14:46:02;5.40;;;2.30;;
11699;SDS011;5906;51.660;6.674;2023-04-03T14:48:29;7.60;;;5.10;;
11699;SDS011;5906;51.660;6.674;2023-04-03T14:50:57;2.73;;;2.40;;
11699;SDS011;5906;51.660;6.674;2023-04-03T14:53:31;5.27;;;2.90;;
11699;SDS011;5906;51.660;6.674;2023-04-03T14:56:38;2.70;;;2.50;;
11699;SDS011;5906;51.660;6.674;2023-04-03T14:58:58;2.63;;;2.43;;
11699;SDS011;5906;51.660;6.674;2023-04-03T15:01:29;4.40;;;2.53;;
11699;SDS011;5906;51.660;6.674;2023-04-03T15:03:56;3.67;;;2.60;;
11699;SDS011;5906;51.660;6.674;2023-04-03T15:06:24;3.07;;;2.43;;
11699;SDS011;5906;51.660;6.674;2023-04-03T15:08:51;5.03;;;3.40;;
11699;SDS011;5906;51.660;6.674;2023-04-03T15:11:21;3.43;;;2.90;;
11699;SDS011;5906;51.660;6.674;2023-04-03T15:13:47;6.33;;;3.00;;
11699;SDS011;5906;51.660;6.674;2023-04-03T15:16:18;3.80;;;2.83;;
11699;SDS011;5906;51.660;6.674;2023-04-03T15:18:45;3.50;;;2.73;;
11699;SDS011;5906;51.660;6.674;2023-04-03T15:21:13;3.40;;;2.57;;
11699;SDS011;5906;51.660;6.674;2023-04-03T15:23:40;4.03;;;2.90;;
11699;SDS011;5906;51.660;6.674;2023-04-03T15:26:08;5.67;;;2.73;;
11699;SDS011;5906;51.660;6.674;2023-04-03T15:28:36;4.90;;;2.40;;
11699;SDS011;5906;51.660;6.674;2023-04-03T15:31:06;9.03;;;3.27;;
11699;SDS011;5906;51.660;6.674;2023-04-03T15:33:33;5.30;;;2.80;;
11699;SDS011;5906;51.660;6.674;2023-04-03T15:36:01;11.20;;;2.70;;
11699;SDS011;5906;51.660;6.674;2023-04-03T15:38:37;4.00;;;2.60;;
11699;SDS011;5906;51.660;6.674;2023-04-03T15:41:04;5.60;;;2.97;;
11699;SDS011;5906;51.660;6.674;2023-04-03T15:43:31;3.70;;;2.63;;
11699;SDS011;5906;51.660;6.674;2023-04-03T15:46:00;3.73;;;2.47;;
11699;SDS011;5906;51.660;6.674;2023-04-03T15:48:27;5.50;;;3.60;;
11699;SDS011;5906;51.660;6.674;2023-04-03T15:50:55;12.33;;;3.00;;
11699;SDS011;5906;51.660;6.674;2023-04-03T15:53:24;3.90;;;3.50;;
11699;SDS011;5906;51.660;6.674;2023-04-03T15:55:51;8.73;;;3.07;;
11699;SDS011;5906;51.660;6.674;2023-04-03T15:58:18;2.90;;;2.60;;
11699;SDS011;5906;51.660;6.674;2023-04-03T16:00:45;3.03;;;2.40;;
11699;SDS011;5906;51.660;6.674;2023-04-03T16:03:14;6.10;;;3.47;;
11699;SDS011;5906;51.660;6.674;2023-04-03T16:05:43;11.53;;;2.80;;
11699;SDS011;5906;51.660;6.674;2023-04-03T16:08:10;5.30;;;3.37;;
11699;SDS011;5906;51.660;6.674;2023-04-03T16:10:37;3.27;;;2.97;;
11699;SDS011;5906;51.660;6.674;2023-04-03T16:13:06;4.50;;;3.07;;
11699;SDS011;5906;51.660;6.674;2023-04-03T16:15:33;6.93;;;2.67;;
11699;SDS011;5906;51.660;6.674;2023-04-03T16:18:01;12.90;;;2.87;;
11699;SDS011;5906;51.660;6.674;2023-04-03T16:20:29;4.90;;;2.80;;
11699;SDS011;5906;51.660;6.674;2023-04-03T16:22:58;3.60;;;3.30;;
11699;SDS011;5906;51.660;6.674;2023-04-03T16:25:26;5.83;;;4.40;;
11699;SDS011;5906;51.660;6.674;2023-04-03T16:28:00;8.13;;;4.00;;
11699;SDS011;5906;51.660;6.674;2023-04-03T16:30:27;4.40;;;3.23;;
11699;SDS011;5906;51.660;6.674;2023-04-03T16:32:54;6.20;;;4.20;;
11699;SDS011;5906;51.660;6.674;2023-04-03T16:35:23;3.80;;;2.50;;
11699;SDS011;5906;51.660;6.674;2023-04-03T16:37:51;6.40;;;2.80;;
11699;SDS011;5906;51.660;6.674;2023-04-03T16:40:18;4.40;;;3.07;;
11699;SDS011;5906;51.660;6.674;2023-04-03T16:42:45;5.23;;;2.83;;
11699;SDS011;5906;51.660;6.674;2023-04-03T16:45:12;5.30;;;2.97;;
11699;SDS011;5906;51.660;6.674;2023-04-03T16:47:39;4.50;;;3.90;;
11699;SDS011;5906;51.660;6.674;2023-04-03T16:50:06;5.20;;;3.27;;
11699;SDS011;5906;51.660;6.674;2023-04-03T16:52:34;5.90;;;3.63;;
11699;SDS011;5906;51.660;6.674;2023-04-03T16:55:01;7.07;;;3.10;;
11699;SDS011;5906;51.660;6.674;2023-04-03T16:57:28;7.23;;;4.43;;
11699;SDS011;5906;51.660;6.674;2023-04-03T16:59:56;8.93;;;4.27;;
11699;SDS011;5906;51.660;6.674;2023-04-03T17:02:23;4.13;;;3.30;;
11699;SDS011;5906;51.660;6.674;2023-04-03T17:04:52;3.40;;;3.10;;
11699;SDS011;5906;51.660;6.674;2023-04-03T17:07:19;7.63;;;4.40;;
11699;SDS011;5906;51.660;6.674;2023-04-03T17:09:47;3.10;;;2.80;;
11699;SDS011;5906;51.660;6.674;2023-04-03T17:12:14;8.83;;;4.07;;
11699;SDS011;5906;51.660;6.674;2023-04-03T17:14:42;10.60;;;4.93;;